< Typhoon 196814 1968 Season Typhoon 196816 >
Typhoon 196815 (CARMEN)
General InformationTrack Information on Google Maps || Disaster Info.ResourceGoogle EarthGE AnimationAtom FeedGeoJSON
Detalied Best Track (Time Zone = UTC)
Year Month Day Hour Lat. Long. Pressure (hPa) Wind (kt) Class Image Chart
1968 9 15 00 16.4 152.4 1008 0 2 -- Chart
1968 9 15 06 16.6 152.0 1006 0 2 -- Chart
1968 9 15 12 16.8 151.6 1004 0 2 -- Chart
1968 9 15 18 17.0 151.3 1002 0 2 -- Chart
1968 9 16 00 17.1 150.9 1000 0 2 -- Chart
1968 9 16 06 17.1 150.5 995 0 9 -- Chart
1968 9 16 12 16.9 150.0 990 0 9 -- Chart
1968 9 16 18 16.8 149.5 985 0 9 -- Chart
1968 9 17 00 17.1 148.9 985 0 9 -- Chart
1968 9 17 06 17.3 148.3 970 0 9 -- Chart
1968 9 17 12 17.4 147.9 965 0 9 -- Chart
1968 9 17 18 17.7 147.5 955 0 9 -- Chart
1968 9 18 00 18.2 147.2 945 0 9 -- Chart
1968 9 18 06 19.0 146.9 945 0 9 -- Chart
1968 9 18 12 19.7 146.7 940 0 9 -- Chart
1968 9 18 18 21.0 146.5 940 0 9 -- Chart
1968 9 19 00 21.8 146.0 940 0 9 -- Chart
1968 9 19 06 22.5 145.6 935 0 9 -- Chart
1968 9 19 12 23.3 145.2 940 0 9 -- Chart
1968 9 19 18 24.0 144.7 935 0 9 -- Chart
1968 9 20 00 25.0 144.5 940 0 9 -- Chart
1968 9 20 06 25.8 144.0 945 0 9 -- Chart
1968 9 20 12 26.7 143.5 950 0 9 -- Chart
1968 9 20 18 27.7 142.9 955 0 9 -- Chart
1968 9 21 00 28.9 142.8 955 0 9 -- Chart
1968 9 21 06 30.0 143.0 955 0 9 -- Chart
1968 9 21 12 30.7 143.3 955 0 9 -- Chart
1968 9 21 18 31.3 143.8 960 0 9 -- Chart
1968 9 22 00 32.0 144.0 960 0 9 -- Chart
1968 9 22 06 32.7 144.0 970 0 9 -- Chart
1968 9 22 12 33.7 144.3 975 0 9 -- Chart
1968 9 22 18 34.4 144.6 970 0 9 -- Chart
1968 9 23 00 35.3 145.1 975 0 9 -- Chart
1968 9 23 06 36.6 146.5 975 0 9 -- Chart
1968 9 23 12 38.0 148.5 980 0 9 -- Chart
1968 9 23 18 38.9 150.5 985 0 9 -- Chart
1968 9 24 00 39.7 152.9 990 0 9 -- Chart
1968 9 24 06 40.2 154.6 996 0 6 -- Chart
1968 9 24 12 40.6 156.5 998 0 6 -- Chart
1968 9 24 18 41.0 158.1 998 0 6 -- Chart
1968 9 25 00 41.0 160.0 1000 0 6 -- Chart
1968 9 25 06 41.2 164.5 1000 0 6 -- Chart
1968 9 25 12 42.1 171.0 1004 0 6 -- Chart
Japan Meteorological Agency Best Track Data | Correction Date : 1989-06-01
< Typhoon 196814 1968 Season Typhoon 196816 >

Help